sensor_id;sensor_type;location;lat;lon;timestamp;P1;durP1;ratioP1;P2;durP2;ratioP2
2624;SDS011;1322;53.256;10.386;2023-06-10T00:00:37;9.13;;;4.43;;
2624;SDS011;1322;53.256;10.386;2023-06-10T00:03:03;8.47;;;4.63;;
2624;SDS011;1322;53.256;10.386;2023-06-10T00:05:29;11.27;;;4.83;;
2624;SDS011;1322;53.256;10.386;2023-06-10T00:07:55;9.57;;;5.00;;
2624;SDS011;1322;53.256;10.386;2023-06-10T00:10:21;7.00;;;4.20;;
2624;SDS011;1322;53.256;10.386;2023-06-10T00:12:47;6.47;;;4.43;;
2624;SDS011;1322;53.256;10.386;2023-06-10T00:15:12;12.43;;;4.93;;
2624;SDS011;1322;53.256;10.386;2023-06-10T00:17:38;9.60;;;5.17;;
2624;SDS011;1322;53.256;10.386;2023-06-10T00:20:05;7.83;;;4.80;;
2624;SDS011;1322;53.256;10.386;2023-06-10T00:22:32;8.80;;;4.47;;
2624;SDS011;1322;53.256;10.386;2023-06-10T00:24:58;7.23;;;4.20;;
2624;SDS011;1322;53.256;10.386;2023-06-10T00:27:24;7.70;;;3.90;;
2624;SDS011;1322;53.256;10.386;2023-06-10T00:29:51;9.63;;;5.03;;
2624;SDS011;1322;53.256;10.386;2023-06-10T00:32:17;7.43;;;4.03;;
2624;SDS011;1322;53.256;10.386;2023-06-10T00:34:42;9.80;;;4.97;;
2624;SDS011;1322;53.256;10.386;2023-06-10T00:37:08;9.30;;;4.80;;
2624;SDS011;1322;53.256;10.386;2023-06-10T00:39:33;8.77;;;4.97;;
2624;SDS011;1322;53.256;10.386;2023-06-10T00:41:59;10.63;;;4.83;;
2624;SDS011;1322;53.256;10.386;2023-06-10T00:44:25;9.93;;;5.03;;
2624;SDS011;1322;53.256;10.386;2023-06-10T00:46:51;6.80;;;4.80;;
2624;SDS011;1322;53.256;10.386;2023-06-10T00:49:18;11.30;;;4.60;;
2624;SDS011;1322;53.256;10.386;2023-06-10T00:51:43;6.40;;;4.43;;
2624;SDS011;1322;53.256;10.386;2023-06-10T00:54:10;6.30;;;4.10;;
2624;SDS011;1322;53.256;10.386;2023-06-10T00:56:38;8.70;;;5.20;;
2624;SDS011;1322;53.256;10.386;2023-06-10T00:59:04;9.07;;;4.40;;
2624;SDS011;1322;53.256;10.386;2023-06-10T01:01:29;9.77;;;3.87;;
2624;SDS011;1322;53.256;10.386;2023-06-10T01:03:55;7.83;;;3.63;;
2624;SDS011;1322;53.256;10.386;2023-06-10T01:09:18;5.23;;;4.03;;
2624;SDS011;1322;53.256;10.386;2023-06-10T01:11:47;11.70;;;4.30;;
2624;SDS011;1322;53.256;10.386;2023-06-10T01:14:19;13.23;;;6.20;;
2624;SDS011;1322;53.256;10.386;2023-06-10T01:16:47;6.33;;;3.87;;
2624;SDS011;1322;53.256;10.386;2023-06-10T01:19:13;5.77;;;4.03;;
2624;SDS011;1322;53.256;10.386;2023-06-10T01:21:42;6.60;;;4.07;;
2624;SDS011;1322;53.256;10.386;2023-06-10T01:24:13;8.90;;;3.77;;
2624;SDS011;1322;53.256;10.386;2023-06-10T01:26:39;8.37;;;3.70;;
2624;SDS011;1322;53.256;10.386;2023-06-10T01:29:20;7.10;;;4.30;;
2624;SDS011;1322;53.256;10.386;2023-06-10T01:32:01;8.67;;;3.83;;
2624;SDS011;1322;53.256;10.386;2023-06-10T01:34:31;9.13;;;4.33;;
2624;SDS011;1322;53.256;10.386;2023-06-10T01:36:58;6.43;;;4.30;;
2624;SDS011;1322;53.256;10.386;2023-06-10T01:39:24;12.37;;;4.60;;
2624;SDS011;1322;53.256;10.386;2023-06-10T01:41:52;8.57;;;4.43;;
2624;SDS011;1322;53.256;10.386;2023-06-10T01:44:21;8.60;;;4.80;;
2624;SDS011;1322;53.256;10.386;2023-06-10T01:46:47;9.67;;;3.93;;
2624;SDS011;1322;53.256;10.386;2023-06-10T01:49:13;12.23;;;4.83;;
2624;SDS011;1322;53.256;10.386;2023-06-10T01:51:40;5.53;;;3.80;;
2624;SDS011;1322;53.256;10.386;2023-06-10T01:54:05;9.93;;;4.13;;
2624;SDS011;1322;53.256;10.386;2023-06-10T01:56:31;6.50;;;3.83;;
2624;SDS011;1322;53.256;10.386;2023-06-10T01:58:57;12.73;;;4.43;;
2624;SDS011;1322;53.256;10.386;2023-06-10T02:01:24;11.60;;;3.90;;
2624;SDS011;1322;53.256;10.386;2023-06-10T02:03:50;13.50;;;4.00;;
2624;SDS011;1322;53.256;10.386;2023-06-10T02:06:16;10.43;;;3.50;;
2624;SDS011;1322;53.256;10.386;2023-06-10T02:08:42;5.40;;;3.83;;
2624;SDS011;1322;53.256;10.386;2023-06-10T02:11:07;8.70;;;4.40;;
2624;SDS011;1322;53.256;10.386;2023-06-10T02:13:33;8.80;;;4.10;;
2624;SDS011;1322;53.256;10.386;2023-06-10T02:15:59;9.20;;;3.67;;
2624;SDS011;1322;53.256;10.386;2023-06-10T02:18:26;10.77;;;3.83;;
2624;SDS011;1322;53.256;10.386;2023-06-10T02:20:53;6.80;;;4.20;;
2624;SDS011;1322;53.256;10.386;2023-06-10T02:23:19;7.83;;;3.70;;
2624;SDS011;1322;53.256;10.386;2023-06-10T02:25:44;11.77;;;4.10;;
2624;SDS011;1322;53.256;10.386;2023-06-10T02:28:12;6.60;;;3.60;;
2624;SDS011;1322;53.256;10.386;2023-06-10T02:30:39;7.10;;;3.60;;
2624;SDS011;1322;53.256;10.386;2023-06-10T02:33:06;19.47;;;4.50;;
2624;SDS011;1322;53.256;10.386;2023-06-10T02:35:34;14.20;;;4.40;;
2624;SDS011;1322;53.256;10.386;2023-06-10T02:38:01;9.60;;;3.50;;
2624;SDS011;1322;53.256;10.386;2023-06-10T02:40:27;5.90;;;3.20;;
2624;SDS011;1322;53.256;10.386;2023-06-10T02:42:53;8.10;;;4.27;;
2624;SDS011;1322;53.256;10.386;2023-06-10T02:45:18;7.73;;;4.00;;
2624;SDS011;1322;53.256;10.386;2023-06-10T02:47:44;9.43;;;3.20;;
2624;SDS011;1322;53.256;10.386;2023-06-10T02:50:10;10.50;;;3.50;;
2624;SDS011;1322;53.256;10.386;2023-06-10T02:52:36;8.33;;;3.40;;
2624;SDS011;1322;53.256;10.386;2023-06-10T02:55:02;10.73;;;3.83;;
2624;SDS011;1322;53.256;10.386;2023-06-10T02:57:27;5.97;;;3.10;;
2624;SDS011;1322;53.256;10.386;2023-06-10T02:59:53;6.03;;;3.33;;
2624;SDS011;1322;53.256;10.386;2023-06-10T03:02:18;5.63;;;3.37;;
2624;SDS011;1322;53.256;10.386;2023-06-10T03:04:44;10.07;;;3.20;;
2624;SDS011;1322;53.256;10.386;2023-06-10T03:07:10;8.10;;;3.50;;
2624;SDS011;1322;53.256;10.386;2023-06-10T03:09:36;8.47;;;4.17;;
2624;SDS011;1322;53.256;10.386;2023-06-10T03:12:02;8.13;;;3.70;;
2624;SDS011;1322;53.256;10.386;2023-06-10T03:14:28;8.50;;;3.07;;
2624;SDS011;1322;53.256;10.386;2023-06-10T03:16:53;7.70;;;3.67;;
2624;SDS011;1322;53.256;10.386;2023-06-10T03:19:19;9.90;;;3.57;;
2624;SDS011;1322;53.256;10.386;2023-06-10T03:21:49;4.77;;;2.87;;
2624;SDS011;1322;53.256;10.386;2023-06-10T03:24:23;7.40;;;3.17;;
2624;SDS011;1322;53.256;10.386;2023-06-10T03:26:48;6.23;;;3.17;;
2624;SDS011;1322;53.256;10.386;2023-06-10T03:29:14;8.07;;;4.33;;
2624;SDS011;1322;53.256;10.386;2023-06-10T03:31:40;9.60;;;3.30;;
2624;SDS011;1322;53.256;10.386;2023-06-10T03:34:05;8.53;;;3.30;;
2624;SDS011;1322;53.256;10.386;2023-06-10T03:36:31;8.40;;;4.20;;
2624;SDS011;1322;53.256;10.386;2023-06-10T03:38:56;11.17;;;3.70;;
2624;SDS011;1322;53.256;10.386;2023-06-10T03:41:22;5.70;;;2.80;;
2624;SDS011;1322;53.256;10.386;2023-06-10T03:43:47;5.63;;;3.00;;
2624;SDS011;1322;53.256;10.386;2023-06-10T03:46:13;5.40;;;3.13;;
2624;SDS011;1322;53.256;10.386;2023-06-10T03:48:39;9.17;;;3.17;;
2624;SDS011;1322;53.256;10.386;2023-06-10T03:51:05;9.20;;;3.40;;
2624;SDS011;1322;53.256;10.386;2023-06-10T03:53:31;13.80;;;3.17;;
2624;SDS011;1322;53.256;10.386;2023-06-10T03:55:57;10.47;;;3.40;;
2624;SDS011;1322;53.256;10.386;2023-06-10T03:58:22;7.90;;;3.63;;
2624;SDS011;1322;53.256;10.386;2023-06-10T04:00:48;10.40;;;3.10;;
2624;SDS011;1322;53.256;10.386;2023-06-10T04:03:14;10.23;;;3.83;;
2624;SDS011;1322;53.256;10.386;2023-06-10T04:05:40;8.63;;;3.77;;
2624;SDS011;1322;53.256;10.386;2023-06-10T04:08:06;4.57;;;2.93;;
2624;SDS011;1322;53.256;10.386;2023-06-10T04:10:32;4.83;;;3.17;;
2624;SDS011;1322;53.256;10.386;2023-06-10T04:12:58;7.37;;;2.70;;
2624;SDS011;1322;53.256;10.386;2023-06-10T04:15:24;9.17;;;3.20;;
2624;SDS011;1322;53.256;10.386;2023-06-10T04:17:50;7.80;;;2.80;;
2624;SDS011;1322;53.256;10.386;2023-06-10T04:20:16;7.23;;;3.20;;
2624;SDS011;1322;53.256;10.386;2023-06-10T04:22:42;11.43;;;4.43;;
2624;SDS011;1322;53.256;10.386;2023-06-10T04:25:08;7.83;;;3.30;;
2624;SDS011;1322;53.256;10.386;2023-06-10T04:27:34;6.63;;;2.83;;
2624;SDS011;1322;53.256;10.386;2023-06-10T04:30:00;10.13;;;3.73;;
2624;SDS011;1322;53.256;10.386;2023-06-10T04:32:26;5.20;;;2.83;;
2624;SDS011;1322;53.256;10.386;2023-06-10T04:34:51;6.23;;;3.30;;
2624;SDS011;1322;53.256;10.386;2023-06-10T04:37:17;7.80;;;3.10;;
2624;SDS011;1322;53.256;10.386;2023-06-10T04:39:43;10.40;;;2.80;;
2624;SDS011;1322;53.256;10.386;2023-06-10T04:42:08;10.60;;;4.03;;
2624;SDS011;1322;53.256;10.386;2023-06-10T04:44:34;6.43;;;2.97;;
2624;SDS011;1322;53.256;10.386;2023-06-10T04:47:00;8.70;;;3.00;;
2624;SDS011;1322;53.256;10.386;2023-06-10T04:49:25;3.40;;;2.20;;
2624;SDS011;1322;53.256;10.386;2023-06-10T04:51:51;12.00;;;4.13;;
2624;SDS011;1322;53.256;10.386;2023-06-10T04:54:17;7.53;;;2.93;;
2624;SDS011;1322;53.256;10.386;2023-06-10T04:56:42;11.57;;;3.03;;
2624;SDS011;1322;53.256;10.386;2023-06-10T04:59:08;4.73;;;2.90;;
2624;SDS011;1322;53.256;10.386;2023-06-10T05:01:33;9.20;;;3.13;;
2624;SDS011;1322;53.256;10.386;2023-06-10T05:03:59;5.17;;;2.93;;
2624;SDS011;1322;53.256;10.386;2023-06-10T05:06:25;10.53;;;3.43;;
2624;SDS011;1322;53.256;10.386;2023-06-10T05:08:50;9.17;;;3.70;;
2624;SDS011;1322;53.256;10.386;2023-06-10T05:11:16;7.00;;;2.70;;
2624;SDS011;1322;53.256;10.386;2023-06-10T05:13:42;7.83;;;2.93;;
2624;SDS011;1322;53.256;10.386;2023-06-10T05:16:09;6.20;;;3.20;;
2624;SDS011;1322;53.256;10.386;2023-06-10T05:18:34;9.17;;;4.40;;
2624;SDS011;1322;53.256;10.386;2023-06-10T05:21:00;7.73;;;3.40;;
2624;SDS011;1322;53.256;10.386;2023-06-10T05:23:27;8.43;;;2.70;;
2624;SDS011;1322;53.256;10.386;2023-06-10T05:25:53;7.33;;;3.40;;
2624;SDS011;1322;53.256;10.386;2023-06-10T05:28:19;8.43;;;3.30;;
2624;SDS011;1322;53.256;10.386;2023-06-10T05:30:44;12.50;;;3.10;;
2624;SDS011;1322;53.256;10.386;2023-06-10T05:33:10;9.90;;;3.00;;
2624;SDS011;1322;53.256;10.386;2023-06-10T05:35:36;5.87;;;3.10;;
2624;SDS011;1322;53.256;10.386;2023-06-10T05:38:02;6.30;;;3.00;;
2624;SDS011;1322;53.256;10.386;2023-06-10T05:40:28;7.37;;;3.20;;
2624;SDS011;1322;53.256;10.386;2023-06-10T05:42:53;7.50;;;3.20;;
2624;SDS011;1322;53.256;10.386;2023-06-10T05:45:19;12.57;;;3.40;;
2624;SDS011;1322;53.256;10.386;2023-06-10T05:47:45;6.63;;;3.03;;
2624;SDS011;1322;53.256;10.386;2023-06-10T05:50:10;9.17;;;3.10;;
2624;SDS011;1322;53.256;10.386;2023-06-10T05:52:36;7.83;;;4.47;;
2624;SDS011;1322;53.256;10.386;2023-06-10T05:55:02;7.77;;;3.10;;
2624;SDS011;1322;53.256;10.386;2023-06-10T05:57:28;8.27;;;3.70;;
2624;SDS011;1322;53.256;10.386;2023-06-10T05:59:54;6.00;;;2.93;;
2624;SDS011;1322;53.256;10.386;2023-06-10T06:02:20;8.20;;;3.63;;
2624;SDS011;1322;53.256;10.386;2023-06-10T06:04:45;9.53;;;3.00;;
2624;SDS011;1322;53.256;10.386;2023-06-10T06:07:11;13.23;;;3.90;;
2624;SDS011;1322;53.256;10.386;2023-06-10T06:09:36;4.93;;;3.30;;
2624;SDS011;1322;53.256;10.386;2023-06-10T06:12:02;6.70;;;2.83;;
2624;SDS011;1322;53.256;10.386;2023-06-10T06:14:30;5.77;;;3.17;;
2624;SDS011;1322;53.256;10.386;2023-06-10T06:16:57;9.13;;;3.97;;
2624;SDS011;1322;53.256;10.386;2023-06-10T06:19:22;7.13;;;3.10;;
2624;SDS011;1322;53.256;10.386;2023-06-10T06:21:48;6.37;;;3.00;;
2624;SDS011;1322;53.256;10.386;2023-06-10T06:24:14;4.97;;;2.40;;
2624;SDS011;1322;53.256;10.386;2023-06-10T06:26:41;5.03;;;2.73;;
2624;SDS011;1322;53.256;10.386;2023-06-10T06:29:06;11.00;;;3.50;;
2624;SDS011;1322;53.256;10.386;2023-06-10T06:31:32;6.97;;;2.57;;
2624;SDS011;1322;53.256;10.386;2023-06-10T06:33:58;6.40;;;2.80;;
2624;SDS011;1322;53.256;10.386;2023-06-10T06:36:23;9.50;;;2.70;;
2624;SDS011;1322;53.256;10.386;2023-06-10T06:38:49;6.50;;;2.57;;
2624;SDS011;1322;53.256;10.386;2023-06-10T06:41:14;7.20;;;3.33;;
2624;SDS011;1322;53.256;10.386;2023-06-10T06:43:40;6.93;;;3.47;;
2624;SDS011;1322;53.256;10.386;2023-06-10T06:46:07;5.97;;;3.07;;
2624;SDS011;1322;53.256;10.386;2023-06-10T06:48:32;8.03;;;2.77;;
2624;SDS011;1322;53.256;10.386;2023-06-10T06:50:58;9.33;;;3.40;;
2624;SDS011;1322;53.256;10.386;2023-06-10T06:53:24;9.57;;;3.53;;
2624;SDS011;1322;53.256;10.386;2023-06-10T06:55:50;9.60;;;3.07;;
2624;SDS011;1322;53.256;10.386;2023-06-10T06:58:15;9.13;;;3.53;;
2624;SDS011;1322;53.256;10.386;2023-06-10T07:00:41;8.80;;;3.43;;
2624;SDS011;1322;53.256;10.386;2023-06-10T07:03:06;8.03;;;3.10;;
2624;SDS011;1322;53.256;10.386;2023-06-10T07:05:32;6.43;;;4.03;;
2624;SDS011;1322;53.256;10.386;2023-06-10T07:07:58;13.13;;;4.03;;
2624;SDS011;1322;53.256;10.386;2023-06-10T07:10:24;6.10;;;2.90;;
2624;SDS011;1322;53.256;10.386;2023-06-10T07:12:50;7.50;;;3.10;;
2624;SDS011;1322;53.256;10.386;2023-06-10T07:15:16;5.53;;;3.13;;
2624;SDS011;1322;53.256;10.386;2023-06-10T07:17:42;11.00;;;3.27;;
2624;SDS011;1322;53.256;10.386;2023-06-10T07:20:08;5.40;;;3.00;;
2624;SDS011;1322;53.256;10.386;2023-06-10T07:22:34;8.53;;;4.53;;
2624;SDS011;1322;53.256;10.386;2023-06-10T07:24:59;11.30;;;3.80;;
2624;SDS011;1322;53.256;10.386;2023-06-10T07:27:25;4.37;;;2.40;;
2624;SDS011;1322;53.256;10.386;2023-06-10T07:29:51;11.57;;;3.60;;
2624;SDS011;1322;53.256;10.386;2023-06-10T07:32:17;8.53;;;3.63;;
2624;SDS011;1322;53.256;10.386;2023-06-10T07:34:47;7.30;;;3.33;;
2624;SDS011;1322;53.256;10.386;2023-06-10T07:37:12;6.13;;;3.27;;
2624;SDS011;1322;53.256;10.386;2023-06-10T07:39:38;9.67;;;3.30;;
2624;SDS011;1322;53.256;10.386;2023-06-10T07:42:04;5.67;;;2.63;;
2624;SDS011;1322;53.256;10.386;2023-06-10T07:44:30;6.30;;;3.30;;
2624;SDS011;1322;53.256;10.386;2023-06-10T07:46:55;5.40;;;2.87;;
2624;SDS011;1322;53.256;10.386;2023-06-10T07:49:22;7.90;;;3.27;;
2624;SDS011;1322;53.256;10.386;2023-06-10T07:51:50;5.10;;;2.70;;
2624;SDS011;1322;53.256;10.386;2023-06-10T07:54:15;8.63;;;2.93;;
2624;SDS011;1322;53.256;10.386;2023-06-10T07:56:41;7.20;;;3.53;;
2624;SDS011;1322;53.256;10.386;2023-06-10T07:59:07;8.67;;;3.70;;
2624;SDS011;1322;53.256;10.386;2023-06-10T08:01:32;4.37;;;3.00;;
2624;SDS011;1322;53.256;10.386;2023-06-10T08:03:58;9.07;;;3.50;;
2624;SDS011;1322;53.256;10.386;2023-06-10T08:06:23;8.33;;;3.13;;
2624;SDS011;1322;53.256;10.386;2023-06-10T08:08:49;10.47;;;3.70;;
2624;SDS011;1322;53.256;10.386;2023-06-10T08:11:15;7.93;;;3.57;;
2624;SDS011;1322;53.256;10.386;2023-06-10T08:13:40;6.27;;;3.47;;
2624;SDS011;1322;53.256;10.386;2023-06-10T08:16:06;5.83;;;2.83;;
2624;SDS011;1322;53.256;10.386;2023-06-10T08:18:32;10.53;;;4.00;;
2624;SDS011;1322;53.256;10.386;2023-06-10T08:20:58;5.97;;;3.00;;
2624;SDS011;1322;53.256;10.386;2023-06-10T08:23:24;7.90;;;3.80;;
2624;SDS011;1322;53.256;10.386;2023-06-10T08:25:50;9.33;;;3.53;;
2624;SDS011;1322;53.256;10.386;2023-06-10T08:28:16;5.53;;;3.07;;
2624;SDS011;1322;53.256;10.386;2023-06-10T08:30:42;9.53;;;4.00;;
2624;SDS011;1322;53.256;10.386;2023-06-10T08:33:07;9.43;;;4.00;;
2624;SDS011;1322;53.256;10.386;2023-06-10T08:35:33;7.87;;;3.17;;
2624;SDS011;1322;53.256;10.386;2023-06-10T08:37:59;5.97;;;3.40;;
2624;SDS011;1322;53.256;10.386;2023-06-10T08:40:24;5.17;;;3.60;;
2624;SDS011;1322;53.256;10.386;2023-06-10T08:45:51;6.13;;;3.40;;
2624;SDS011;1322;53.256;10.386;2023-06-10T08:48:20;6.93;;;3.20;;
2624;SDS011;1322;53.256;10.386;2023-06-10T08:50:47;5.63;;;3.40;;
2624;SDS011;1322;53.256;10.386;2023-06-10T08:53:16;5.73;;;3.43;;
2624;SDS011;1322;53.256;10.386;2023-06-10T08:55:44;4.60;;;3.17;;
2624;SDS011;1322;53.256;10.386;2023-06-10T08:58:16;6.43;;;3.77;;
2624;SDS011;1322;53.256;10.386;2023-06-10T09:00:42;10.73;;;3.70;;
2624;SDS011;1322;53.256;10.386;2023-06-10T09:03:08;6.90;;;4.37;;
2624;SDS011;1322;53.256;10.386;2023-06-10T09:05:34;5.33;;;4.10;;
2624;SDS011;1322;53.256;10.386;2023-06-10T09:08:01;5.83;;;4.03;;
2624;SDS011;1322;53.256;10.386;2023-06-10T09:10:27;6.13;;;3.67;;
2624;SDS011;1322;53.256;10.386;2023-06-10T09:12:53;12.17;;;4.50;;
2624;SDS011;1322;53.256;10.386;2023-06-10T09:15:19;12.37;;;5.10;;
2624;SDS011;1322;53.256;10.386;2023-06-10T09:17:45;6.57;;;3.73;;
2624;SDS011;1322;53.256;10.386;2023-06-10T09:20:11;7.97;;;4.20;;
2624;SDS011;1322;53.256;10.386;2023-06-10T09:22:37;7.90;;;3.70;;
2624;SDS011;1322;53.256;10.386;2023-06-10T09:25:03;6.13;;;4.00;;
2624;SDS011;1322;53.256;10.386;2023-06-10T09:27:43;8.20;;;4.67;;
2624;SDS011;1322;53.256;10.386;2023-06-10T09:30:23;7.60;;;4.43;;
2624;SDS011;1322;53.256;10.386;2023-06-10T09:32:54;10.23;;;4.00;;
2624;SDS011;1322;53.256;10.386;2023-06-10T09:35:23;5.77;;;4.20;;
2624;SDS011;1322;53.256;10.386;2023-06-10T09:37:53;12.23;;;5.67;;
2624;SDS011;1322;53.256;10.386;2023-06-10T09:40:20;8.63;;;4.40;;
2624;SDS011;1322;53.256;10.386;2023-06-10T09:42:46;6.33;;;4.20;;
2624;SDS011;1322;53.256;10.386;2023-06-10T09:45:19;9.40;;;4.43;;
2624;SDS011;1322;53.256;10.386;2023-06-10T09:47:46;11.27;;;3.93;;
2624;SDS011;1322;53.256;10.386;2023-06-10T09:50:12;5.93;;;4.20;;
2624;SDS011;1322;53.256;10.386;2023-06-10T09:52:38;6.20;;;4.30;;
2624;SDS011;1322;53.256;10.386;2023-06-10T09:55:04;10.87;;;4.47;;
2624;SDS011;1322;53.256;10.386;2023-06-10T09:57:34;7.00;;;3.80;;
2624;SDS011;1322;53.256;10.386;2023-06-10T10:00:07;6.80;;;4.20;;
2624;SDS011;1322;53.256;10.386;2023-06-10T10:02:50;7.63;;;3.90;;
2624;SDS011;1322;53.256;10.386;2023-06-10T10:05:18;7.70;;;4.10;;
2624;SDS011;1322;53.256;10.386;2023-06-10T10:07:46;7.13;;;4.80;;
2624;SDS011;1322;53.256;10.386;2023-06-10T10:10:12;6.53;;;4.30;;
2624;SDS011;1322;53.256;10.386;2023-06-10T10:12:39;7.90;;;5.20;;
2624;SDS011;1322;53.256;10.386;2023-06-10T10:15:09;6.27;;;4.53;;
2624;SDS011;1322;53.256;10.386;2023-06-10T10:20:27;8.50;;;4.90;;
2624;SDS011;1322;53.256;10.386;2023-06-10T10:22:58;12.30;;;4.77;;
2624;SDS011;1322;53.256;10.386;2023-06-10T10:25:28;6.93;;;4.50;;
2624;SDS011;1322;53.256;10.386;2023-06-10T10:28:12;6.97;;;4.77;;
2624;SDS011;1322;53.256;10.386;2023-06-10T10:30:45;7.80;;;3.90;;
2624;SDS011;1322;53.256;10.386;2023-06-10T10:33:18;9.10;;;4.70;;
2624;SDS011;1322;53.256;10.386;2023-06-10T10:35:48;7.33;;;4.60;;
2624;SDS011;1322;53.256;10.386;2023-06-10T10:38:15;6.90;;;4.20;;
2624;SDS011;1322;53.256;10.386;2023-06-10T10:40:40;5.70;;;4.33;;
2624;SDS011;1322;53.256;10.386;2023-06-10T10:43:08;6.97;;;5.00;;
2624;SDS011;1322;53.256;10.386;2023-06-10T10:45:34;9.70;;;4.63;;
2624;SDS011;1322;53.256;10.386;2023-06-10T10:48:04;6.00;;;4.70;;
2624;SDS011;1322;53.256;10.386;2023-06-10T10:50:31;9.80;;;4.50;;
2624;SDS011;1322;53.256;10.386;2023-06-10T10:53:03;7.80;;;5.40;;
2624;SDS011;1322;53.256;10.386;2023-06-10T10:55:30;6.53;;;5.77;;
2624;SDS011;1322;53.256;10.386;2023-06-10T11:00:26;7.47;;;4.87;;
2624;SDS011;1322;53.256;10.386;2023-06-10T11:03:07;11.10;;;6.10;;
2624;SDS011;1322;53.256;10.386;2023-06-10T11:05:46;8.00;;;5.30;;
2624;SDS011;1322;53.256;10.386;2023-06-10T11:08:14;6.63;;;5.17;;
2624;SDS011;1322;53.256;10.386;2023-06-10T11:10:55;5.77;;;4.93;;
2624;SDS011;1322;53.256;10.386;2023-06-10T11:13:21;10.50;;;5.57;;
2624;SDS011;1322;53.256;10.386;2023-06-10T11:15:48;8.53;;;4.53;;
2624;SDS011;1322;53.256;10.386;2023-06-10T11:18:24;6.20;;;5.17;;
2624;SDS011;1322;53.256;10.386;2023-06-10T11:31:25;7.30;;;5.40;;
2624;SDS011;1322;53.256;10.386;2023-06-10T11:33:52;8.23;;;6.07;;
2624;SDS011;1322;53.256;10.386;2023-06-10T11:36:20;13.80;;;6.67;;
2624;SDS011;1322;53.256;10.386;2023-06-10T11:38:46;7.17;;;5.90;;
2624;SDS011;1322;53.256;10.386;2023-06-10T11:41:13;10.60;;;5.77;;
2624;SDS011;1322;53.256;10.386;2023-06-10T11:43:43;8.83;;;5.77;;
2624;SDS011;1322;53.256;10.386;2023-06-10T11:46:10;13.90;;;6.30;;
2624;SDS011;1322;53.256;10.386;2023-06-10T11:48:36;11.60;;;6.63;;
2624;SDS011;1322;53.256;10.386;2023-06-10T11:51:08;9.50;;;5.50;;
2624;SDS011;1322;53.256;10.386;2023-06-10T11:53:34;7.37;;;5.90;;
2624;SDS011;1322;53.256;10.386;2023-06-10T11:56:00;10.73;;;6.00;;
2624;SDS011;1322;53.256;10.386;2023-06-10T11:58:25;7.67;;;5.10;;
2624;SDS011;1322;53.256;10.386;2023-06-10T12:00:52;7.00;;;5.50;;
2624;SDS011;1322;53.256;10.386;2023-06-10T12:03:19;10.70;;;6.27;;
2624;SDS011;1322;53.256;10.386;2023-06-10T12:05:56;9.67;;;5.43;;
2624;SDS011;1322;53.256;10.386;2023-06-10T12:08:26;6.07;;;4.90;;
2624;SDS011;1322;53.256;10.386;2023-06-10T12:10:52;8.43;;;5.47;;
2624;SDS011;1322;53.256;10.386;2023-06-10T12:13:18;8.73;;;6.00;;
2624;SDS011;1322;53.256;10.386;2023-06-10T12:15:44;8.10;;;5.10;;
2624;SDS011;1322;53.256;10.386;2023-06-10T12:18:17;5.83;;;5.20;;
2624;SDS011;1322;53.256;10.386;2023-06-10T12:20:47;5.80;;;5.30;;
2624;SDS011;1322;53.256;10.386;2023-06-10T12:23:13;9.17;;;5.27;;
2624;SDS011;1322;53.256;10.386;2023-06-10T12:25:49;6.20;;;5.47;;
2624;SDS011;1322;53.256;10.386;2023-06-10T12:28:25;10.80;;;6.07;;
2624;SDS011;1322;53.256;10.386;2023-06-10T12:30:52;7.10;;;5.87;;
2624;SDS011;1322;53.256;10.386;2023-06-10T12:33:32;7.73;;;5.83;;
2624;SDS011;1322;53.256;10.386;2023-06-10T12:35:58;9.00;;;6.53;;
2624;SDS011;1322;53.256;10.386;2023-06-10T12:38:24;9.67;;;6.50;;
2624;SDS011;1322;53.256;10.386;2023-06-10T12:40:53;8.30;;;5.40;;
2624;SDS011;1322;53.256;10.386;2023-06-10T12:43:22;7.63;;;5.00;;
2624;SDS011;1322;53.256;10.386;2023-06-10T12:45:48;11.10;;;5.50;;
2624;SDS011;1322;53.256;10.386;2023-06-10T12:50:43;8.77;;;5.13;;
2624;SDS011;1322;53.256;10.386;2023-06-10T12:53:09;12.30;;;5.53;;
2624;SDS011;1322;53.256;10.386;2023-06-10T12:55:36;11.00;;;5.60;;
2624;SDS011;1322;53.256;10.386;2023-06-10T12:58:02;10.73;;;6.20;;
2624;SDS011;1322;53.256;10.386;2023-06-10T13:00:28;9.30;;;5.63;;
2624;SDS011;1322;53.256;10.386;2023-06-10T13:02:57;11.60;;;5.53;;
2624;SDS011;1322;53.256;10.386;2023-06-10T13:05:25;7.60;;;5.07;;
2624;SDS011;1322;53.256;10.386;2023-06-10T13:07:51;12.53;;;6.10;;
2624;SDS011;1322;53.256;10.386;2023-06-10T13:10:17;7.43;;;5.90;;
2624;SDS011;1322;53.256;10.386;2023-06-10T13:12:43;15.23;;;7.13;;
2624;SDS011;1322;53.256;10.386;2023-06-10T13:15:09;11.30;;;6.63;;
2624;SDS011;1322;53.256;10.386;2023-06-10T13:17:36;5.70;;;5.10;;
2624;SDS011;1322;53.256;10.386;2023-06-10T13:20:05;9.03;;;5.67;;
2624;SDS011;1322;53.256;10.386;2023-06-10T13:22:32;8.23;;;6.23;;
2624;SDS011;1322;53.256;10.386;2023-06-10T13:25:00;12.40;;;5.73;;
2624;SDS011;1322;53.256;10.386;2023-06-10T13:27:26;10.10;;;6.20;;
2624;SDS011;1322;53.256;10.386;2023-06-10T13:29:52;8.17;;;6.23;;
2624;SDS011;1322;53.256;10.386;2023-06-10T13:32:18;7.60;;;6.23;;
2624;SDS011;1322;53.256;10.386;2023-06-10T13:34:43;6.60;;;5.60;;
2624;SDS011;1322;53.256;10.386;2023-06-10T13:37:09;9.60;;;5.78;;
2624;SDS011;1322;53.256;10.386;2023-06-10T13:39:34;9.50;;;6.30;;
2624;SDS011;1322;53.256;10.386;2023-06-10T13:42:00;6.88;;;5.88;;
2624;SDS011;1322;53.256;10.386;2023-06-10T13:44:26;13.52;;;6.60;;
2624;SDS011;1322;53.256;10.386;2023-06-10T13:46:51;7.97;;;6.45;;
2624;SDS011;1322;53.256;10.386;2023-06-10T13:49:17;7.50;;;5.20;;
2624;SDS011;1322;53.256;10.386;2023-06-10T13:51:42;8.05;;;5.82;;
2624;SDS011;1322;53.256;10.386;2023-06-10T13:54:08;11.20;;;6.03;;
2624;SDS011;1322;53.256;10.386;2023-06-10T13:56:34;7.85;;;6.13;;
2624;SDS011;1322;53.256;10.386;2023-06-10T13:59:03;6.90;;;6.05;;
2624;SDS011;1322;53.256;10.386;2023-06-10T14:01:28;7.10;;;6.40;;
2624;SDS011;1322;53.256;10.386;2023-06-10T14:03:54;8.57;;;6.30;;
2624;SDS011;1322;53.256;10.386;2023-06-10T14:06:20;7.53;;;6.47;;
2624;SDS011;1322;53.256;10.386;2023-06-10T14:08:46;6.57;;;5.63;;
2624;SDS011;1322;53.256;10.386;2023-06-10T14:11:11;8.52;;;7.00;;
2624;SDS011;1322;53.256;10.386;2023-06-10T14:13:37;12.15;;;6.22;;
2624;SDS011;1322;53.256;10.386;2023-06-10T14:16:06;8.00;;;6.75;;
2624;SDS011;1322;53.256;10.386;2023-06-10T14:18:31;8.60;;;5.90;;
2624;SDS011;1322;53.256;10.386;2023-06-10T14:20:57;9.98;;;6.60;;
2624;SDS011;1322;53.256;10.386;2023-06-10T14:23:23;8.77;;;6.38;;
2624;SDS011;1322;53.256;10.386;2023-06-10T14:25:50;11.10;;;8.50;;
2624;SDS011;1322;53.256;10.386;2023-06-10T14:28:16;8.48;;;6.47;;
2624;SDS011;1322;53.256;10.386;2023-06-10T14:30:41;8.75;;;6.22;;
2624;SDS011;1322;53.256;10.386;2023-06-10T14:33:07;7.00;;;5.90;;
2624;SDS011;1322;53.256;10.386;2023-06-10T14:35:32;8.57;;;6.90;;
2624;SDS011;1322;53.256;10.386;2023-06-10T14:37:58;7.75;;;6.95;;
2624;SDS011;1322;53.256;10.386;2023-06-10T14:40:24;8.43;;;5.70;;
2624;SDS011;1322;53.256;10.386;2023-06-10T14:42:51;7.97;;;6.67;;
2624;SDS011;1322;53.256;10.386;2023-06-10T14:45:17;7.03;;;6.05;;
2624;SDS011;1322;53.256;10.386;2023-06-10T14:47:42;7.40;;;6.50;;
2624;SDS011;1322;53.256;10.386;2023-06-10T14:50:08;7.05;;;6.00;;
2624;SDS011;1322;53.256;10.386;2023-06-10T14:52:34;6.97;;;6.28;;
2624;SDS011;1322;53.256;10.386;2023-06-10T14:54:59;7.85;;;6.32;;
2624;SDS011;1322;53.256;10.386;2023-06-10T14:57:25;7.68;;;6.22;;
2624;SDS011;1322;53.256;10.386;2023-06-10T14:59:51;9.02;;;7.03;;
2624;SDS011;1322;53.256;10.386;2023-06-10T15:02:16;8.50;;;6.13;;
2624;SDS011;1322;53.256;10.386;2023-06-10T15:04:42;14.70;;;6.97;;
2624;SDS011;1322;53.256;10.386;2023-06-10T15:07:07;9.75;;;6.00;;
2624;SDS011;1322;53.256;10.386;2023-06-10T15:09:33;6.25;;;5.45;;
2624;SDS011;1322;53.256;10.386;2023-06-10T15:11:59;7.30;;;6.57;;
2624;SDS011;1322;53.256;10.386;2023-06-10T15:14:25;9.63;;;6.72;;
2624;SDS011;1322;53.256;10.386;2023-06-10T15:16:51;8.43;;;6.95;;
2624;SDS011;1322;53.256;10.386;2023-06-10T15:19:16;12.50;;;6.13;;